Home PIREPS Pireps

Flight SLR8121

  • Submitted By: Vincent Fourni
  • Departure Airport: Bruxelles National (EBBR)
  • Arrival Airport: Palma de Mallorca / Son San Juan (LEPA)
  • Aircraft: B737-800 (OO-SLR)
  • Flight Time: 02.09
  • Date Submitted: 04/08/2017
  • Status: Accepted
Flight Details
Gross Revenue:
(125 load / € 0.00 per unit
€ 0.00
Fuel Cost:
(5385 fuel used @ 5.1 / unit)
€ 27,463.50

Additional Log Information:

View Log

Aircraft Used in flight is Boeing 737-800NGX JetairFly Airlines (TUI) Wingl
10:05 Brakes are On
10:07 Brakes are Released
10:13 Brakes are On
10:14 Brakes are Released
10:18 You Took off @ 166 Knots and Flaps at Position 3
Departure Weather
EBBR 040750Z 23012KT 9999 -SHRA BKN023 19/13 Q1012 NOSIGrn
10:18 Landing Gear Up @ 174 Knots and 380 Feet
10:21 Below 10000 feet you are not allowed to go over 250 knots
10:22 Above FL100 you need to switch of the landing lights
12:09 Landing Gear Down @ 192 Knots and 2020 Feet
12:12 You Landed @ 119 Knots and with -150 Vertical Speed
Arrival Weather
LEPA 040930Z 23003KT CAVOK 35/25 Q1014 NOSIGrn
12:12 Paused
12:15 Unpaused
12:15 Brakes are On
12:17 Brussels Bel-Track1.0.1.2

Route Map

Corporate About Us Our Team Vacancies Information Fleet Route Network Rules and Regulations Operations Flight Schedules Event Center Tours Partners IVAO Vatsim Acars dev FSCB

fb Users Online No pilots online!
0 Pilot(s) and 119 Guest(s) Online
CMS by phpVMS - Design by Crazycreatives.com - Copyright © 2020 - Brussels Airlines Virtual